Time;durP1;ratioP1;P1;durP2;ratioP2;P2;SDS_P1;SDS_P2;PMS_P1;PMS_P2;Temp;Humidity;BMP_temperature;BMP_pressure;BME280_temperature;BME280_humidity;BME280_pressure;Samples;Min_cycle;Max_cycle;Signal;HPM_P1;HPM_P2
2022/05/21 00:00:34;;;;;;;;;;;;;;;;;;5037322;28;28309;-83
2022/05/21 00:02:59;;;;;;;;;;;;;;;;;;5037034;28;28416;-83
2022/05/21 00:05:24;;;;;;;;;;;;;;;;;;5036844;28;28414;-83
2022/05/21 00:07:49;;;;;;;;;;;;;;;;;;5025197;28;29416;-82
2022/05/21 00:10:15;;;;;;;;;;;;;;;;;;5016993;28;28258;-84
2022/05/21 00:12:40;;;;;;;;;;;;;;;;;;5017076;28;28400;-83
2022/05/21 00:15:05;;;;;;;;;;;;;;;;;;5017034;28;27913;-83
2022/05/21 00:17:30;;;;;;;;;;;;;;;;;;5016891;28;28444;-83
2022/05/21 00:19:55;;;;;;;;;;;;;;;;;;5016958;28;28494;-83
2022/05/21 00:22:20;;;;;;;;;;;;;;;;;;5016755;28;28383;-83
2022/05/21 00:24:45;;;;;;;;;;;;;;;;;;5016925;28;28539;-84
2022/05/21 00:27:11;;;;;;;;;;;;;;;;;;5016707;28;29799;-83
2022/05/21 00:29:36;;;;;;;;;;;;;;;;;;5016731;28;28343;-83
2022/05/21 00:32:02;;;;;;;;;;;;;;;;;;5016992;28;28385;-84
2022/05/21 00:34:27;;;;;;;;;;;;;;;;;;5016544;28;28407;-83
2022/05/21 00:36:52;;;;;;;;;;;;;;;;;;5016519;28;28484;-83
2022/05/21 00:39:18;;;;;;;;;;;;;;;;;;5016445;28;28500;-84
2022/05/21 00:41:43;;;;;;;;;;;;;;;;;;5016669;28;28336;-84
2022/05/21 00:44:08;;;;;;;;;;;;;;;;;;5016145;28;28233;-83
2022/05/21 00:46:33;;;;;;;;;;;;;;;;;;5016510;28;28393;-84
2022/05/21 00:48:58;;;;;;;;;;;;;;;;;;5016402;28;28290;-84
2022/05/21 00:51:23;;;;;;;;;;;;;;;;;;5016315;28;28380;-84
2022/05/21 00:53:49;;;;;;;;;;;;;;;;;;5016375;28;28401;-84
2022/05/21 00:56:14;;;;;;;;;;;;;;;;;;5016310;28;28512;-84
2022/05/21 01:01:23;;;;;;;;;;;;;;;;;;5016308;28;28692;-84
2022/05/21 01:03:48;;;;;;;;;;;;;;;;;;5016461;28;28414;-83
2022/05/21 01:06:13;;;;;;;;;;;;;;;;;;5015829;28;28405;-83
2022/05/21 01:08:39;;;;;;;;;;;;;;;;;;5015726;28;28457;-83
2022/05/21 01:11:04;;;;;;;;;;;;;;;;;;5016375;28;28321;-83
2022/05/21 01:13:29;;;;;;;;;;;;;;;;;;5016085;28;28461;-84
2022/05/21 01:15:54;;;;;;;;;;;;;;;;;;5016211;28;28363;-84
2022/05/21 01:18:19;;;;;;;;;;;;;;;;;;5016186;28;28532;-84
2022/05/21 01:20:44;;;;;;;;;;;;;;;;;;5016221;28;28438;-83
2022/05/21 01:23:09;;;;;;;;;;;;;;;;;;5015877;28;28467;-84
2022/05/21 01:25:35;;;;;;;;;;;;;;;;;;5016071;28;29744;-83
2022/05/21 01:28:00;;;;;;;;;;;;;;;;;;5015583;28;28406;-84
2022/05/21 01:30:25;;;;;;;;;;;;;;;;;;5015894;28;28348;-83
2022/05/21 01:32:50;;;;;;;;;;;;;;;;;;5015960;28;28393;-83
2022/05/21 01:35:15;;;;;;;;;;;;;;;;;;5015788;28;28383;-84
2022/05/21 01:37:41;;;;;;;;;;;;;;;;;;5015700;28;28342;-84
2022/05/21 01:40:07;;;;;;;;;;;;;;;;;;5015709;28;28367;-84
2022/05/21 01:42:33;;;;;;;;;;;;;;;;;;5015927;28;28397;-83
2022/05/21 01:44:58;;;;;;;;;;;;;;;;;;5015744;28;28512;-83
2022/05/21 01:47:23;;;;;;;;;;;;;;;;;;5015482;28;28989;-83
2022/05/21 01:49:49;;;;;;;;;;;;;;;;;;5015819;28;28365;-83
2022/05/21 01:52:14;;;;;;;;;;;;;;;;;;5015740;28;28290;-83
2022/05/21 01:54:39;;;;;;;;;;;;;;;;;;5015445;28;28262;-83
2022/05/21 01:57:04;;;;;;;;;;;;;;;;;;5014770;28;27761;-83
2022/05/21 01:59:29;;;;;;;;;;;;;;;;;;5015644;28;27761;-83
2022/05/21 02:01:54;;;;;;;;;;;;;;;;;;5015695;28;28222;-83
2022/05/21 02:04:19;;;;;;;;;;;;;;;;;;5015321;28;28421;-83
2022/05/21 02:06:44;;;;;;;;;;;;;;;;;;5015482;28;28248;-83
2022/05/21 02:09:09;;;;;;;;;;;;;;;;;;5015196;28;28241;-83
2022/05/21 02:11:35;;;;;;;;;;;;;;;;;;5015358;28;28384;-83
2022/05/21 02:14:00;;;;;;;;;;;;;;;;;;5015277;28;28598;-83
2022/05/21 02:16:25;;;;;;;;;;;;;;;;;;5015068;28;28242;-83
2022/05/21 02:18:50;;;;;;;;;;;;;;;;;;5015360;28;28307;-83
2022/05/21 02:21:17;;;;;;;;;;;;;;;;;;5015142;28;28456;-83
2022/05/21 02:23:42;;;;;;;;;;;;;;;;;;5014956;28;28366;-83
2022/05/21 02:26:07;;;;;;;;;;;;;;;;;;5015364;28;28266;-83
2022/05/21 02:28:33;;;;;;;;;;;;;;;;;;5014991;28;28500;-83
2022/05/21 02:30:58;;;;;;;;;;;;;;;;;;5015472;28;28326;-83
2022/05/21 02:33:23;;;;;;;;;;;;;;;;;;5014709;28;29915;-83
2022/05/21 02:35:48;;;;;;;;;;;;;;;;;;5024154;28;28120;-84
2022/05/21 02:40:57;;;;;;;;;;;;;;;;;;5015257;28;28369;-84
2022/05/21 02:43:23;;;;;;;;;;;;;;;;;;5014921;28;28747;-84
2022/05/21 02:45:48;;;;;;;;;;;;;;;;;;5014899;28;28472;-84
2022/05/21 02:48:13;;;;;;;;;;;;;;;;;;5014679;28;28307;-84
2022/05/21 02:50:38;;;;;;;;;;;;;;;;;;5033397;28;28287;-84
2022/05/21 02:53:03;;;;;;;;;;;;;;;;;;5033886;28;28233;-84
2022/05/21 02:55:28;;;;;;;;;;;;;;;;;;5033497;28;29694;-84
2022/05/21 02:57:53;;;;;;;;;;;;;;;;;;5033121;28;28314;-83
2022/05/21 03:00:18;;;;;;;;;;;;;;;;;;5029855;28;28442;-83
2022/05/21 03:02:43;;;;;;;;;;;;;;;;;;5034593;28;29530;-83
2022/05/21 03:05:09;;;;;;;;;;;;;;;;;;5034334;28;27929;-84
2022/05/21 03:07:34;;;;;;;;;;;;;;;;;;5036498;28;28393;-84
2022/05/21 03:12:43;;;;;;;;;;;;;;;;;;5038072;28;28239;-84
2022/05/21 03:15:08;;;;;;;;;;;;;;;;;;5037954;28;28312;-84
2022/05/21 03:17:33;;;;;;;;;;;;;;;;;;5038103;28;28286;-84
2022/05/21 03:19:58;;;;;;;;;;;;;;;;;;5037961;28;28549;-84
2022/05/21 03:22:23;;;;;;;;;;;;;;;;;;5036348;28;28594;-84
2022/05/21 03:24:48;;;;;;;;;;;;;;;;;;5037728;28;28326;-84
2022/05/21 03:27:13;;;;;;;;;;;;;;;;;;5037605;28;28391;-84
2022/05/21 03:29:38;;;;;;;;;;;;;;;;;;5037710;28;28318;-84
2022/05/21 03:32:03;;;;;;;;;;;;;;;;;;5031349;28;29178;-85
2022/05/21 03:34:29;;;;;;;;;;;;;;;;;;5036847;28;28310;-84
2022/05/21 03:36:54;;;;;;;;;;;;;;;;;;5037078;28;28523;-84
2022/05/21 03:39:19;;;;;;;;;;;;;;;;;;5036623;28;28431;-84
2022/05/21 03:41:44;;;;;;;;;;;;;;;;;;5037044;28;28683;-84
2022/05/21 03:44:09;;;;;;;;;;;;;;;;;;5036826;28;28416;-84
2022/05/21 03:46:38;;;;;;;;;;;;;;;;;;5037506;28;28436;-84
2022/05/21 03:49:03;;;;;;;;;;;;;;;;;;5037095;28;28376;-83
2022/05/21 03:51:28;;;;;;;;;;;;;;;;;;5036998;28;29140;-84
2022/05/21 03:53:53;;;;;;;;;;;;;;;;;;5036412;28;28384;-84
2022/05/21 03:56:18;;;;;;;;;;;;;;;;;;5036588;28;28538;-84
2022/05/21 03:58:43;;;;;;;;;;;;;;;;;;5037194;28;28418;-83
2022/05/21 04:01:09;;;;;;;;;;;;;;;;;;5036968;28;29359;-84
2022/05/21 04:03:34;;;;;;;;;;;;;;;;;;5036969;28;28313;-84
2022/05/21 04:05:59;;;;;;;;;;;;;;;;;;5037065;28;28464;-83
2022/05/21 04:08:24;;;;;;;;;;;;;;;;;;5037201;28;28360;-84
2022/05/21 04:10:49;;;;;;;;;;;;;;;;;;5036617;28;29782;-84
2022/05/21 04:13:14;;;;;;;;;;;;;;;;;;5036563;28;28366;-85
2022/05/21 04:15:39;;;;;;;;;;;;;;;;;;5036903;28;28308;-85
2022/05/21 04:18:05;;;;;;;;;;;;;;;;;;5036602;28;28289;-86
2022/05/21 04:20:30;;;;;;;;;;;;;;;;;;5036214;28;28595;-85
2022/05/21 04:22:55;;;;;;;;;;;;;;;;;;5036584;28;28242;-84
2022/05/21 04:25:20;;;;;;;;;;;;;;;;;;5036326;28;28462;-86
2022/05/21 04:27:45;;;;;;;;;;;;;;;;;;5036312;28;28383;-85
2022/05/21 04:30:10;;;;;;;;;;;;;;;;;;5036098;28;28242;-85
2022/05/21 04:32:35;;;;;;;;;;;;;;;;;;5036314;28;28570;-83
2022/05/21 04:35:00;;;;;;;;;;;;;;;;;;5036213;28;28234;-84
2022/05/21 04:37:25;;;;;;;;;;;;;;;;;;5036789;28;28356;-84
2022/05/21 04:39:51;;;;;;;;;;;;;;;;;;5036220;28;28317;-83
2022/05/21 04:42:16;;;;;;;;;;;;;;;;;;5035767;28;28389;-84
2022/05/21 04:44:41;;;;;;;;;;;;;;;;;;5036341;28;28329;-84
2022/05/21 04:47:06;;;;;;;;;;;;;;;;;;5036330;28;28592;-84
2022/05/21 04:49:31;;;;;;;;;;;;;;;;;;5036281;28;28495;-84
2022/05/21 04:51:56;;;;;;;;;;;;;;;;;;5036161;28;28328;-84
2022/05/21 04:54:21;;;;;;;;;;;;;;;;;;5035915;28;28476;-84
2022/05/21 04:56:46;;;;;;;;;;;;;;;;;;5035977;28;27820;-84
2022/05/21 04:59:12;;;;;;;;;;;;;;;;;;5036078;28;29156;-84
2022/05/21 05:01:37;;;;;;;;;;;;;;;;;;5036043;28;28336;-84
2022/05/21 05:04:02;;;;;;;;;;;;;;;;;;5036351;28;28257;-84
2022/05/21 05:06:27;;;;;;;;;;;;;;;;;;5035722;28;28491;-84
2022/05/21 05:08:52;;;;;;;;;;;;;;;;;;5035334;28;28558;-85
2022/05/21 05:11:18;;;;;;;;;;;;;;;;;;5035726;28;28525;-84
2022/05/21 05:13:43;;;;;;;;;;;;;;;;;;5036071;28;28918;-84
2022/05/21 05:16:08;;;;;;;;;;;;;;;;;;5035796;28;28413;-84
2022/05/21 05:18:33;;;;;;;;;;;;;;;;;;5035734;28;28397;-84
2022/05/21 05:20:58;;;;;;;;;;;;;;;;;;5035804;28;28428;-84
2022/05/21 05:23:23;;;;;;;;;;;;;;;;;;5036124;28;28898;-84
2022/05/21 05:25:48;;;;;;;;;;;;;;;;;;5035654;28;28396;-84
2022/05/21 05:28:14;;;;;;;;;;;;;;;;;;5035780;28;29462;-84
2022/05/21 05:30:39;;;;;;;;;;;;;;;;;;5032644;28;28433;-84
2022/05/21 05:33:04;;;;;;;;;;;;;;;;;;5017150;28;28771;-84
2022/05/21 05:35:30;;;;;;;;;;;;;;;;;;5035570;28;28567;-84
2022/05/21 05:37:55;;;;;;;;;;;;;;;;;;5035158;28;28499;-84
2022/05/21 05:40:20;;;;;;;;;;;;;;;;;;5035466;28;28500;-84
2022/05/21 05:42:46;;;;;;;;;;;;;;;;;;5035574;28;28583;-84
2022/05/21 05:45:12;;;;;;;;;;;;;;;;;;5035177;28;28392;-84
2022/05/21 05:47:37;;;;;;;;;;;;;;;;;;5035184;28;29339;-84
2022/05/21 05:50:02;;;;;;;;;;;;;;;;;;5035264;28;28380;-84
2022/05/21 05:52:27;;;;;;;;;;;;;;;;;;5035664;28;28449;-84
2022/05/21 05:54:52;;;;;;;;;;;;;;;;;;5035566;28;28375;-84
2022/05/21 05:57:17;;;;;;;;;;;;;;;;;;5034368;28;28373;-84
2022/05/21 05:59:48;;;;;;;;;;;;;;;;;;5034954;28;28889;-84
2022/05/21 06:04:57;;;;;;;;;;;;;;;;;;5035222;28;27816;-84
2022/05/21 06:07:22;;;;;;;;;;;;;;;;;;5035156;28;28401;-84
2022/05/21 06:09:47;;;;;;;;;;;;;;;;;;5034165;28;28459;-84
2022/05/21 06:12:12;;;;;;;;;;;;;;;;;;5034946;28;28257;-84
2022/05/21 06:14:37;;;;;;;;;;;;;;;;;;5035027;28;28231;-84
2022/05/21 06:17:03;;;;;;;;;;;;;;;;;;5034909;28;28704;-84
2022/05/21 06:19:28;;;;;;;;;;;;;;;;;;5035193;28;28409;-84
2022/05/21 06:21:53;;;;;;;;;;;;;;;;;;5034801;28;28253;-84
2022/05/21 06:24:18;;;;;;;;;;;;;;;;;;5035104;28;28393;-83
2022/05/21 06:26:43;;;;;;;;;;;;;;;;;;5034688;28;28312;-83
2022/05/21 06:29:08;;;;;;;;;;;;;;;;;;5034367;28;28309;-84
2022/05/21 06:31:34;;;;;;;;;;;;;;;;;;5035007;28;28329;-84
2022/05/21 06:33:59;;;;;;;;;;;;;;;;;;5034269;28;28527;-84
2022/05/21 06:36:25;;;;;;;;;;;;;;;;;;5035088;28;29834;-84
2022/05/21 06:38:50;;;;;;;;;;;;;;;;;;5034524;28;28395;-84
2022/05/21 06:41:15;;;;;;;;;;;;;;;;;;5034491;28;28535;-84
2022/05/21 06:43:41;;;;;;;;;;;;;;;;;;5038184;28;28399;-84
2022/05/21 06:46:06;;;;;;;;;;;;;;;;;;5037682;28;28457;-84
2022/05/21 06:48:31;;;;;;;;;;;;;;;;;;5037508;28;28293;-84
2022/05/21 06:50:56;;;;;;;;;;;;;;;;;;5037896;28;28404;-84
2022/05/21 06:53:21;;;;;;;;;;;;;;;;;;5038077;28;28443;-84
2022/05/21 06:55:46;;;;;;;;;;;;;;;;;;5037079;28;29545;-84
2022/05/21 06:58:11;;;;;;;;;;;;;;;;;;5038051;28;28349;-84
2022/05/21 07:00:36;;;;;;;;;;;;;;;;;;5037841;28;28356;-84
2022/05/21 07:03:02;;;;;;;;;;;;;;;;;;5038225;28;28372;-84
2022/05/21 07:08:11;;;;;;;;;;;;;;;;;;5037621;28;28397;-87
2022/05/21 07:10:36;;;;;;;;;;;;;;;;;;5037045;28;29920;-87
2022/05/21 07:13:01;;;;;;;;;;;;;;;;;;5037342;28;28388;-86
2022/05/21 07:15:26;;;;;;;;;;;;;;;;;;5037954;28;28392;-85
2022/05/21 07:17:52;;;;;;;;;;;;;;;;;;5037149;28;28534;-85
2022/05/21 07:20:17;;;;;;;;;;;;;;;;;;5037881;28;28483;-84
2022/05/21 07:22:42;;;;;;;;;;;;;;;;;;5037559;28;28495;-88
2022/05/21 07:25:07;;;;;;;;;;;;;;;;;;5037022;28;28728;-84
2022/05/21 07:27:32;;;;;;;;;;;;;;;;;;5019058;28;28594;-85
2022/05/21 07:29:57;;;;;;;;;;;;;;;;;;5036881;28;28509;-84
2022/05/21 07:32:23;;;;;;;;;;;;;;;;;;5037280;28;28396;-83
2022/05/21 07:34:48;;;;;;;;;;;;;;;;;;5037286;28;28428;-87
2022/05/21 07:37:13;;;;;;;;;;;;;;;;;;5036895;28;28379;-88
2022/05/21 07:39:38;;;;;;;;;;;;;;;;;;5037214;28;28533;-84
2022/05/21 07:42:04;;;;;;;;;;;;;;;;;;5037303;28;28419;-85
2022/05/21 07:44:29;;;;;;;;;;;;;;;;;;5037163;28;28572;-84
2022/05/21 07:46:54;;;;;;;;;;;;;;;;;;5037009;28;28499;-85
2022/05/21 07:49:19;;;;;;;;;;;;;;;;;;5037074;28;28479;-86
2022/05/21 07:51:44;;;;;;;;;;;;;;;;;;5037649;28;28361;-87
2022/05/21 07:54:09;;;;;;;;;;;;;;;;;;5033995;28;29782;-87
2022/05/21 07:56:34;;;;;;;;;;;;;;;;;;5037150;28;28384;-85
2022/05/21 07:58:59;;;;;;;;;;;;;;;;;;5036955;28;28270;-85
2022/05/21 08:01:24;;;;;;;;;;;;;;;;;;5036748;28;28549;-87
2022/05/21 08:03:50;;;;;;;;;;;;;;;;;;5036365;28;28418;-85
2022/05/21 08:06:15;;;;;;;;;;;;;;;;;;5036783;28;28392;-87
2022/05/21 08:08:40;;;;;;;;;;;;;;;;;;5036785;28;27815;-86
2022/05/21 08:11:05;;;;;;;;;;;;;;;;;;5036748;28;28219;-88
2022/05/21 08:13:30;;;;;;;;;;;;;;;;;;5036234;28;29098;-87
2022/05/21 08:15:56;;;;;;;;;;;;;;;;;;5036007;28;28333;-86
2022/05/21 08:18:21;;;;;;;;;;;;;;;;;;5037088;28;28356;-88
2022/05/21 08:20:46;;;;;;;;;;;;;;;;;;5036182;28;28388;-86
2022/05/21 08:28:39;;;;;;;;;;;;;;;;;;5036166;28;28422;-86
2022/05/21 08:31:04;;;;;;;;;;;;;;;;;;5026213;28;28491;-85
2022/05/21 08:33:29;;;;;;;;;;;;;;;;;;5019058;28;28601;-84
2022/05/21 08:35:54;;;;;;;;;;;;;;;;;;5034747;28;28345;-85
2022/05/21 08:38:20;;;;;;;;;;;;;;;;;;5035031;28;28391;-86
2022/05/21 08:40:45;;;;;;;;;;;;;;;;;;5034858;28;28389;-89
2022/05/21 08:43:10;;;;;;;;;;;;;;;;;;5034520;28;28593;-85
2022/05/21 08:45:37;;;;;;;;;;;;;;;;;;5034616;28;28455;-84
2022/05/21 08:48:02;;;;;;;;;;;;;;;;;;5034333;28;28356;-85
2022/05/21 08:50:27;;;;;;;;;;;;;;;;;;5033788;28;28506;-84
2022/05/21 08:52:52;;;;;;;;;;;;;;;;;;5034228;28;28600;-86
2022/05/21 08:55:17;;;;;;;;;;;;;;;;;;5034094;28;28347;-87
2022/05/21 08:57:42;;;;;;;;;;;;;;;;;;5033515;28;28345;-85
2022/05/21 09:00:07;;;;;;;;;;;;;;;;;;5034844;28;28404;-88
2022/05/21 09:02:32;;;;;;;;;;;;;;;;;;5034393;28;28662;-85
2022/05/21 09:04:58;;;;;;;;;;;;;;;;;;5033790;28;28626;-85
2022/05/21 09:07:23;;;;;;;;;;;;;;;;;;5034813;28;28440;-87
2022/05/21 09:09:48;;;;;;;;;;;;;;;;;;5033225;28;28533;-85
2022/05/21 09:12:13;;;;;;;;;;;;;;;;;;5034369;28;29613;-86
2022/05/21 09:14:43;;;;;;;;;;;;;;;;;;5034366;28;28587;-88
2022/05/21 09:17:08;;;;;;;;;;;;;;;;;;5034920;28;28415;-86
2022/05/21 09:19:33;;;;;;;;;;;;;;;;;;5034098;28;28396;-86
2022/05/21 09:21:58;;;;;;;;;;;;;;;;;;5033003;28;28607;-85
2022/05/21 09:24:23;;;;;;;;;;;;;;;;;;5028651;28;28525;-83
2022/05/21 09:26:48;;;;;;;;;;;;;;;;;;5014455;28;28417;-85
2022/05/21 09:29:13;;;;;;;;;;;;;;;;;;5014270;28;28503;-85
2022/05/21 09:31:39;;;;;;;;;;;;;;;;;;5011387;28;29188;-84
2022/05/21 09:34:04;;;;;;;;;;;;;;;;;;5013095;28;28388;-85
2022/05/21 09:36:29;;;;;;;;;;;;;;;;;;5015880;28;28302;-86
2022/05/21 09:38:54;;;;;;;;;;;;;;;;;;5015764;28;28527;-87
2022/05/21 09:41:19;;;;;;;;;;;;;;;;;;5015358;28;29302;-88
2022/05/21 09:46:28;;;;;;;;;;;;;;;;;;5027347;28;28579;-87
2022/05/21 09:48:53;;;;;;;;;;;;;;;;;;5034586;28;28546;-88
2022/05/21 09:51:18;;;;;;;;;;;;;;;;;;5034927;28;29403;-86
2022/05/21 09:53:43;;;;;;;;;;;;;;;;;;5034720;28;28497;-87
2022/05/21 09:56:08;;;;;;;;;;;;;;;;;;5035459;28;28527;-84
2022/05/21 09:58:33;;;;;;;;;;;;;;;;;;5036170;28;28356;-87
2022/05/21 10:00:58;;;;;;;;;;;;;;;;;;5035693;28;28641;-89
2022/05/21 10:03:23;;;;;;;;;;;;;;;;;;5034802;28;28353;-86
2022/05/21 10:05:49;;;;;;;;;;;;;;;;;;5034985;28;28606;-88
2022/05/21 10:11:02;;;;;;;;;;;;;;;;;;5036881;28;29739;-94
2022/05/21 10:13:27;;;;;;;;;;;;;;;;;;5034395;28;28313;-95
2022/05/21 10:15:52;;;;;;;;;;;;;;;;;;5033618;28;28459;-92
2022/05/21 10:18:18;;;;;;;;;;;;;;;;;;5017137;28;28305;-93
2022/05/21 10:20:44;;;;;;;;;;;;;;;;;;5016897;28;28648;-92
2022/05/21 10:23:09;;;;;;;;;;;;;;;;;;5017461;28;29231;-85
2022/05/21 10:25:34;;;;;;;;;;;;;;;;;;5035501;28;28403;-93
2022/05/21 10:28:00;;;;;;;;;;;;;;;;;;5016743;28;28504;-88
2022/05/21 10:30:25;;;;;;;;;;;;;;;;;;5015460;28;30139;-89
2022/05/21 10:32:50;;;;;;;;;;;;;;;;;;5034595;28;28570;-86
2022/05/21 10:35:18;;;;;;;;;;;;;;;;;;5038126;28;28460;-91
2022/05/21 10:37:43;;;;;;;;;;;;;;;;;;5034516;28;28400;-88
2022/05/21 10:40:11;;;;;;;;;;;;;;;;;;5033889;28;29606;-90
2022/05/21 10:42:36;;;;;;;;;;;;;;;;;;5036063;28;28294;-94
2022/05/21 10:45:01;;;;;;;;;;;;;;;;;;5033779;28;28332;-89
2022/05/21 10:47:27;;;;;;;;;;;;;;;;;;5035407;28;28310;-90
2022/05/21 10:49:54;;;;;;;;;;;;;;;;;;5036034;28;28455;-93
2022/05/21 10:52:19;;;;;;;;;;;;;;;;;;5034987;28;28539;-86
2022/05/21 10:54:44;;;;;;;;;;;;;;;;;;5034738;28;28377;-86
2022/05/21 10:57:09;;;;;;;;;;;;;;;;;;5034643;28;28415;-85
2022/05/21 10:59:34;;;;;;;;;;;;;;;;;;5035091;28;28432;-88
2022/05/21 11:01:59;;;;;;;;;;;;;;;;;;5034525;28;28510;-88
2022/05/21 11:04:24;;;;;;;;;;;;;;;;;;5034715;28;28453;-84
2022/05/21 11:06:49;;;;;;;;;;;;;;;;;;5034565;28;35310;-86
2022/05/21 11:09:14;;;;;;;;;;;;;;;;;;5034367;28;28515;-85
2022/05/21 11:11:42;;;;;;;;;;;;;;;;;;5034333;28;28478;-86
2022/05/21 11:14:07;;;;;;;;;;;;;;;;;;5034089;28;28529;-86
2022/05/21 11:16:32;;;;;;;;;;;;;;;;;;5034397;28;28854;-88
2022/05/21 11:18:57;;;;;;;;;;;;;;;;;;5034358;28;28402;-89
2022/05/21 11:21:22;;;;;;;;;;;;;;;;;;5016592;28;28447;-88
2022/05/21 11:23:47;;;;;;;;;;;;;;;;;;5034353;28;28401;-88
2022/05/21 11:26:13;;;;;;;;;;;;;;;;;;5034896;28;28329;-89
2022/05/21 11:28:38;;;;;;;;;;;;;;;;;;5036873;28;28364;-87
2022/05/21 11:31:03;;;;;;;;;;;;;;;;;;5037860;28;28429;-88
2022/05/21 11:39:04;;;;;;;;;;;;;;;;;;5021369;28;28511;-86
2022/05/21 11:41:29;;;;;;;;;;;;;;;;;;5019445;28;29589;-87
2022/05/21 11:43:54;;;;;;;;;;;;;;;;;;5037460;28;28475;-87
2022/05/21 11:46:20;;;;;;;;;;;;;;;;;;5036845;28;28398;-86
2022/05/21 11:48:45;;;;;;;;;;;;;;;;;;5037086;28;28998;-90
2022/05/21 11:51:11;;;;;;;;;;;;;;;;;;5037412;28;28028;-92
2022/05/21 11:53:37;;;;;;;;;;;;;;;;;;5019418;28;28420;-91
2022/05/21 11:56:03;;;;;;;;;;;;;;;;;;5037504;28;28511;-90
2022/05/21 11:58:28;;;;;;;;;;;;;;;;;;5037173;28;28635;-91
2022/05/21 12:00:54;;;;;;;;;;;;;;;;;;5037139;28;28450;-90
2022/05/21 12:03:20;;;;;;;;;;;;;;;;;;5037338;28;28341;-91
2022/05/21 12:05:49;;;;;;;;;;;;;;;;;;5035684;28;28415;-91
2022/05/21 12:08:14;;;;;;;;;;;;;;;;;;5037119;28;28535;-90
2022/05/21 12:10:39;;;;;;;;;;;;;;;;;;5037224;28;28456;-92
2022/05/21 12:13:05;;;;;;;;;;;;;;;;;;5036531;28;28246;-91
2022/05/21 12:15:33;;;;;;;;;;;;;;;;;;5036971;28;28475;-91
2022/05/21 12:17:59;;;;;;;;;;;;;;;;;;5036644;28;28337;-94
2022/05/21 12:20:24;;;;;;;;;;;;;;;;;;5037184;28;28392;-92
2022/05/21 12:22:50;;;;;;;;;;;;;;;;;;5037075;28;28384;-90
2022/05/21 12:25:15;;;;;;;;;;;;;;;;;;5036997;28;28408;-88
2022/05/21 12:27:41;;;;;;;;;;;;;;;;;;5036734;28;29141;-91
2022/05/21 12:30:06;;;;;;;;;;;;;;;;;;5023024;28;28325;-93
2022/05/21 12:32:33;;;;;;;;;;;;;;;;;;4998711;28;27812;-90
2022/05/21 12:34:58;;;;;;;;;;;;;;;;;;5017546;28;28999;-90
2022/05/21 12:37:23;;;;;;;;;;;;;;;;;;5020514;28;28393;-92
2022/05/21 12:39:49;;;;;;;;;;;;;;;;;;5015891;28;28033;-92
2022/05/21 12:42:14;;;;;;;;;;;;;;;;;;5017306;28;28527;-92
2022/05/21 12:44:40;;;;;;;;;;;;;;;;;;5015831;28;28575;-91
2022/05/21 12:47:05;;;;;;;;;;;;;;;;;;5017208;28;29074;-92
2022/05/21 12:49:30;;;;;;;;;;;;;;;;;;5016537;28;28409;-93
2022/05/21 12:51:55;;;;;;;;;;;;;;;;;;5015038;28;28350;-93
2022/05/21 12:54:20;;;;;;;;;;;;;;;;;;5032423;28;28543;-95
2022/05/21 12:56:45;;;;;;;;;;;;;;;;;;5037040;28;30928;-93
2022/05/21 12:59:11;;;;;;;;;;;;;;;;;;5036825;28;27764;-95
2022/05/21 13:01:40;;;;;;;;;;;;;;;;;;5037315;28;28391;-93
2022/05/21 13:04:06;;;;;;;;;;;;;;;;;;5035754;28;28296;-90
2022/05/21 13:06:31;;;;;;;;;;;;;;;;;;5035242;28;28426;-93
2022/05/21 13:08:56;;;;;;;;;;;;;;;;;;5034263;28;28269;-86
2022/05/21 13:11:22;;;;;;;;;;;;;;;;;;5035850;28;28459;-94
2022/05/21 13:13:47;;;;;;;;;;;;;;;;;;5018574;28;28259;-93
2022/05/21 13:16:12;;;;;;;;;;;;;;;;;;5040102;28;28571;-95
2022/05/21 13:18:37;;;;;;;;;;;;;;;;;;5051974;28;29100;-90
2022/05/21 13:21:02;;;;;;;;;;;;;;;;;;5022775;28;27847;-90
2022/05/21 13:23:27;;;;;;;;;;;;;;;;;;5018113;28;28588;-93
2022/05/21 13:25:52;;;;;;;;;;;;;;;;;;5035696;28;28491;-89
2022/05/21 13:28:17;;;;;;;;;;;;;;;;;;5035509;28;28273;-91
2022/05/21 13:30:51;;;;;;;;;;;;;;;;;;5035326;28;28681;-90
2022/05/21 13:33:16;;;;;;;;;;;;;;;;;;5034975;28;28416;-90
2022/05/21 13:35:42;;;;;;;;;;;;;;;;;;5035427;28;28498;-89
2022/05/21 13:38:07;;;;;;;;;;;;;;;;;;5034654;28;28523;-90
2022/05/21 13:40:32;;;;;;;;;;;;;;;;;;5034225;28;28324;-90
2022/05/21 13:42:57;;;;;;;;;;;;;;;;;;5035401;28;28258;-90
2022/05/21 13:45:22;;;;;;;;;;;;;;;;;;5034695;28;29453;-89
2022/05/21 13:47:47;;;;;;;;;;;;;;;;;;5035132;28;28589;-90
2022/05/21 13:50:12;;;;;;;;;;;;;;;;;;5017192;28;28388;-89
2022/05/21 13:52:37;;;;;;;;;;;;;;;;;;5033496;28;28784;-90
2022/05/21 13:55:02;;;;;;;;;;;;;;;;;;5034752;28;28695;-89
2022/05/21 13:57:28;;;;;;;;;;;;;;;;;;5035411;28;28377;-90
2022/05/21 13:59:53;;;;;;;;;;;;;;;;;;5033839;28;28278;-88
2022/05/21 14:02:18;;;;;;;;;;;;;;;;;;5034431;28;28234;-89
2022/05/21 14:04:43;;;;;;;;;;;;;;;;;;5035113;28;28692;-89
2022/05/21 14:07:09;;;;;;;;;;;;;;;;;;5035061;28;28325;-89
2022/05/21 14:09:34;;;;;;;;;;;;;;;;;;5034644;28;28666;-89
2022/05/21 14:11:59;;;;;;;;;;;;;;;;;;5035421;28;28455;-89
2022/05/21 14:14:24;;;;;;;;;;;;;;;;;;5034822;28;28380;-89
2022/05/21 14:16:49;;;;;;;;;;;;;;;;;;5034708;28;28575;-89
2022/05/21 14:19:15;;;;;;;;;;;;;;;;;;5016884;28;28342;-89
2022/05/21 14:21:40;;;;;;;;;;;;;;;;;;5035182;28;28379;-90
2022/05/21 14:24:05;;;;;;;;;;;;;;;;;;5034273;28;29622;-90
2022/05/21 14:26:33;;;;;;;;;;;;;;;;;;5034436;28;28445;-90
2022/05/21 14:28:59;;;;;;;;;;;;;;;;;;5034985;28;28349;-93
2022/05/21 14:31:24;;;;;;;;;;;;;;;;;;5033456;28;28565;-93
2022/05/21 14:33:49;;;;;;;;;;;;;;;;;;5031977;28;30745;-93
2022/05/21 14:36:14;;;;;;;;;;;;;;;;;;5035100;28;32023;-92
2022/05/21 14:38:39;;;;;;;;;;;;;;;;;;5016714;28;28361;-91
2022/05/21 14:41:04;;;;;;;;;;;;;;;;;;5034988;28;28513;-92
2022/05/21 14:43:29;;;;;;;;;;;;;;;;;;5034449;28;28543;-91
2022/05/21 14:45:55;;;;;;;;;;;;;;;;;;5033993;28;31433;-89
2022/05/21 14:48:20;;;;;;;;;;;;;;;;;;5033537;28;28248;-89
2022/05/21 14:53:29;;;;;;;;;;;;;;;;;;5034490;28;29003;-87
2022/05/21 14:55:54;;;;;;;;;;;;;;;;;;5035334;28;28269;-91
2022/05/21 14:58:20;;;;;;;;;;;;;;;;;;5015703;28;28327;-91
2022/05/21 15:00:48;;;;;;;;;;;;;;;;;;5034688;28;28441;-91
2022/05/21 15:03:13;;;;;;;;;;;;;;;;;;5017800;28;29924;-90
2022/05/21 15:05:38;;;;;;;;;;;;;;;;;;5037365;28;28293;-91
2022/05/21 15:08:03;;;;;;;;;;;;;;;;;;5037934;28;28518;-90
2022/05/21 15:10:29;;;;;;;;;;;;;;;;;;5037952;28;28415;-92
2022/05/21 15:12:54;;;;;;;;;;;;;;;;;;5037061;28;29055;-89
2022/05/21 15:15:19;;;;;;;;;;;;;;;;;;5037061;28;28403;-88
2022/05/21 15:17:44;;;;;;;;;;;;;;;;;;5037599;28;28568;-88
2022/05/21 15:20:10;;;;;;;;;;;;;;;;;;5037957;28;28483;-89
2022/05/21 15:22:35;;;;;;;;;;;;;;;;;;5037750;28;28471;-88
2022/05/21 15:25:00;;;;;;;;;;;;;;;;;;5037818;28;28444;-89
2022/05/21 15:27:25;;;;;;;;;;;;;;;;;;5037927;28;28391;-89
2022/05/21 15:29:50;;;;;;;;;;;;;;;;;;5037679;28;28325;-88
2022/05/21 15:32:18;;;;;;;;;;;;;;;;;;5037543;28;28352;-89
2022/05/21 15:34:43;;;;;;;;;;;;;;;;;;5037391;28;28432;-89
2022/05/21 15:37:09;;;;;;;;;;;;;;;;;;5037721;28;28326;-90
2022/05/21 15:39:34;;;;;;;;;;;;;;;;;;5037823;28;28234;-89
2022/05/21 15:42:00;;;;;;;;;;;;;;;;;;5037489;28;28317;-88
2022/05/21 15:44:25;;;;;;;;;;;;;;;;;;5037895;28;28428;-90
2022/05/21 15:46:50;;;;;;;;;;;;;;;;;;5037454;28;28345;-87
2022/05/21 15:49:16;;;;;;;;;;;;;;;;;;5019129;28;28239;-89
2022/05/21 15:51:41;;;;;;;;;;;;;;;;;;5017572;28;28333;-88
2022/05/21 15:54:06;;;;;;;;;;;;;;;;;;5017104;28;28481;-90
2022/05/21 15:56:31;;;;;;;;;;;;;;;;;;5037405;28;28289;-89
2022/05/21 15:58:56;;;;;;;;;;;;;;;;;;5031523;28;28496;-90
2022/05/21 16:01:22;;;;;;;;;;;;;;;;;;5017444;28;29594;-89
2022/05/21 16:03:48;;;;;;;;;;;;;;;;;;4999072;28;29286;-93
2022/05/21 16:06:13;;;;;;;;;;;;;;;;;;4999384;28;28500;-91
2022/05/21 16:08:38;;;;;;;;;;;;;;;;;;5000775;28;28623;-92
2022/05/21 16:11:06;;;;;;;;;;;;;;;;;;5002642;28;29989;-96
2022/05/21 16:13:50;;;;;;;;;;;;;;;;;;5026419;28;27806;-96
2022/05/21 16:16:19;;;;;;;;;;;;;;;;;;5005932;28;27871;-96
2022/05/21 16:19:03;;;;;;;;;;;;;;;;;;5027062;28;27869;-96
2022/05/21 16:21:28;;;;;;;;;;;;;;;;;;5001036;28;30144;-95
2022/05/21 16:23:55;;;;;;;;;;;;;;;;;;5006603;28;28803;-95
2022/05/21 16:29:04;;;;;;;;;;;;;;;;;;5007189;28;28520;-94
2022/05/21 16:31:29;;;;;;;;;;;;;;;;;;5001149;28;28413;-95
2022/05/21 16:33:54;;;;;;;;;;;;;;;;;;5000004;28;28643;-93
2022/05/21 16:36:19;;;;;;;;;;;;;;;;;;5023188;28;28497;-93
2022/05/21 16:38:45;;;;;;;;;;;;;;;;;;5014830;28;28410;-91
2022/05/21 16:41:10;;;;;;;;;;;;;;;;;;5013990;28;28467;-93
2022/05/21 16:43:35;;;;;;;;;;;;;;;;;;5013561;28;28491;-92
2022/05/21 16:46:00;;;;;;;;;;;;;;;;;;4997892;28;27773;-93
2022/05/21 16:48:27;;;;;;;;;;;;;;;;;;4997377;28;28718;-93
2022/05/21 16:50:52;;;;;;;;;;;;;;;;;;5014609;28;32321;-96
2022/05/21 16:53:17;;;;;;;;;;;;;;;;;;5045939;28;29254;-92
2022/05/21 16:55:42;;;;;;;;;;;;;;;;;;5034813;28;28328;-93
2022/05/21 16:58:07;;;;;;;;;;;;;;;;;;5018908;28;28693;-94
2022/05/21 17:00:33;;;;;;;;;;;;;;;;;;5034993;28;28511;-93
2022/05/21 17:02:58;;;;;;;;;;;;;;;;;;5035624;28;28404;-92
2022/05/21 17:05:23;;;;;;;;;;;;;;;;;;5017859;28;28475;-93
2022/05/21 17:07:48;;;;;;;;;;;;;;;;;;5035934;28;28543;-92